Time;durP1;ratioP1;P1;durP2;ratioP2;P2;SDS_P1;SDS_P2;PMS_P1;PMS_P2;Temp;Humidity;BMP_temperature;BMP_pressure;BME280_temperature;BME280_humidity;BME280_pressure;Samples;Min_cycle;Max_cycle;Signal;HPM_P1;HPM_P2
2023/11/19 00:00:46;;;;;;;115.37;18.23;;;;;;;;;;5007682;28;20025;-56
2023/11/19 00:03:13;;;;;;;158.50;21.48;;;;;;;;;;5005688;28;20272;-56
2023/11/19 00:05:38;;;;;;;147.50;23.50;;;;;;;;;;5005318;28;20101;-58
2023/11/19 00:08:04;;;;;;;52.72;4.65;;;;;;;;;;5007721;28;20095;-58
2023/11/19 00:10:29;;;;;;;94.78;8.75;;;;;;;;;;5006321;28;20125;-57
2023/11/19 00:12:54;;;;;;;56.50;4.50;;;;;;;;;;5006670;28;20030;-55
2023/11/19 00:15:20;;;;;;;65.80;4.57;;;;;;;;;;5006083;28;20076;-57
2023/11/19 00:17:46;;;;;;;42.33;4.38;;;;;;;;;;5007877;28;20021;-54
2023/11/19 00:20:12;;;;;;;87.38;5.97;;;;;;;;;;5005736;28;20013;-57
2023/11/19 00:22:37;;;;;;;120.47;7.78;;;;;;;;;;5004867;28;20571;-57
2023/11/19 00:25:03;;;;;;;79.18;5.63;;;;;;;;;;5007367;28;20465;-58
2023/11/19 00:27:28;;;;;;;156.48;9.07;;;;;;;;;;5003842;28;20036;-57
2023/11/19 00:29:54;;;;;;;66.82;4.97;;;;;;;;;;5005371;28;20035;-57
2023/11/19 00:32:19;;;;;;;69.10;4.97;;;;;;;;;;5004538;28;20038;-57
2023/11/19 00:34:45;;;;;;;95.22;6.15;;;;;;;;;;5004283;28;20037;-57
2023/11/19 00:37:10;;;;;;;90.13;5.82;;;;;;;;;;5005446;28;20148;-56
2023/11/19 00:39:35;;;;;;;112.85;7.35;;;;;;;;;;5007989;28;20112;-56
2023/11/19 00:42:00;;;;;;;96.80;5.68;;;;;;;;;;5006901;28;20044;-57
2023/11/19 00:44:26;;;;;;;86.28;6.00;;;;;;;;;;5005707;28;20025;-56
2023/11/19 00:46:51;;;;;;;43.72;4.00;;;;;;;;;;5005309;28;20480;-57
2023/11/19 00:49:16;;;;;;;52.20;3.85;;;;;;;;;;5006683;28;20037;-57
2023/11/19 00:51:41;;;;;;;134.45;8.27;;;;;;;;;;5003425;28;20052;-57
2023/11/19 00:54:07;;;;;;;52.72;4.05;;;;;;;;;;5006658;28;20034;-56
2023/11/19 00:56:32;;;;;;;96.43;6.82;;;;;;;;;;5003926;28;20057;-56
2023/11/19 00:58:57;;;;;;;67.50;4.80;;;;;;;;;;5006709;28;20105;-57
2023/11/19 01:01:23;;;;;;;66.85;5.05;;;;;;;;;;5008181;28;20068;-57
2023/11/19 01:03:48;;;;;;;46.10;3.25;;;;;;;;;;5006290;28;20087;-56
2023/11/19 01:06:14;;;;;;;33.17;3.08;;;;;;;;;;5007831;28;20041;-57
2023/11/19 01:08:39;;;;;;;115.80;7.38;;;;;;;;;;5006735;28;20030;-56
2023/11/19 01:11:04;;;;;;;43.85;3.53;;;;;;;;;;5009445;28;20470;-57
2023/11/19 01:13:29;;;;;;;70.78;5.03;;;;;;;;;;5007090;28;20470;-57
2023/11/19 01:15:56;;;;;;;78.23;5.20;;;;;;;;;;5007867;28;20091;-57
2023/11/19 01:18:22;;;;;;;50.22;4.18;;;;;;;;;;5009120;28;20271;-57
2023/11/19 01:20:47;;;;;;;53.63;4.15;;;;;;;;;;5007191;28;20034;-57
2023/11/19 01:23:12;;;;;;;82.55;5.70;;;;;;;;;;5008572;28;20072;-56
2023/11/19 01:25:38;;;;;;;83.55;5.95;;;;;;;;;;5007760;28;20052;-57
2023/11/19 01:28:04;;;;;;;54.30;4.18;;;;;;;;;;5009614;28;20026;-57
2023/11/19 01:30:30;;;;;;;87.38;5.78;;;;;;;;;;5007568;28;20152;-57
2023/11/19 01:32:55;;;;;;;69.97;4.85;;;;;;;;;;5008379;28;20040;-57
2023/11/19 01:35:21;;;;;;;65.60;5.23;;;;;;;;;;5005766;28;20022;-57
2023/11/19 01:37:46;;;;;;;41.38;3.70;;;;;;;;;;5008920;28;20257;-56
2023/11/19 01:40:12;;;;;;;80.82;5.47;;;;;;;;;;5006643;28;20129;-57
2023/11/19 01:42:38;;;;;;;83.60;6.38;;;;;;;;;;5006193;28;20038;-57
2023/11/19 01:45:06;;;;;;;41.38;3.67;;;;;;;;;;5009133;28;20088;-57
2023/11/19 01:47:31;;;;;;;106.47;6.88;;;;;;;;;;5009070;28;20049;-56
2023/11/19 01:49:57;;;;;;;45.03;3.83;;;;;;;;;;5011284;28;20021;-56
2023/11/19 01:52:23;;;;;;;46.03;4.07;;;;;;;;;;5010933;28;20491;-56
2023/11/19 01:54:49;;;;;;;65.38;4.63;;;;;;;;;;5010674;28;20044;-56
2023/11/19 01:57:14;;;;;;;43.15;3.60;;;;;;;;;;5012435;28;20053;-57
2023/11/19 01:59:41;;;;;;;82.07;5.32;;;;;;;;;;5011660;28;20112;-56
2023/11/19 02:02:07;;;;;;;62.53;4.50;;;;;;;;;;5011339;28;20367;-57
2023/11/19 02:04:32;;;;;;;69.32;4.78;;;;;;;;;;5012818;28;20044;-56
2023/11/19 02:06:58;;;;;;;58.92;4.57;;;;;;;;;;5012025;28;20041;-56
2023/11/19 02:09:23;;;;;;;56.13;4.03;;;;;;;;;;5011856;28;20018;-57
2023/11/19 02:11:51;;;;;;;98.90;5.80;;;;;;;;;;5010372;28;20045;-58
2023/11/19 02:14:16;;;;;;;54.40;4.05;;;;;;;;;;5013881;28;20025;-57
2023/11/19 02:16:42;;;;;;;72.38;5.25;;;;;;;;;;5011026;28;20110;-57
2023/11/19 02:19:08;;;;;;;72.28;5.07;;;;;;;;;;5012608;28;20449;-57
2023/11/19 02:21:33;;;;;;;88.45;6.13;;;;;;;;;;5009076;28;20518;-56
2023/11/19 02:23:58;;;;;;;50.30;3.92;;;;;;;;;;5010389;28;20033;-56
2023/11/19 02:26:26;;;;;;;80.38;5.07;;;;;;;;;;5011494;28;20033;-55
2023/11/19 02:28:52;;;;;;;48.10;3.88;;;;;;;;;;5011078;28;20052;-55
2023/11/19 02:31:19;;;;;;;58.30;4.20;;;;;;;;;;5011606;28;20405;-56
2023/11/19 02:33:44;;;;;;;105.68;6.43;;;;;;;;;;5009908;28;20493;-56
2023/11/19 02:36:09;;;;;;;60.78;4.35;;;;;;;;;;5009657;28;20026;-54
2023/11/19 02:38:35;;;;;;;54.53;3.85;;;;;;;;;;5010480;28;20629;-55
2023/11/19 02:41:05;;;;;;;58.13;4.43;;;;;;;;;;5010724;28;20531;-55
2023/11/19 02:43:34;;;;;;;82.90;5.60;;;;;;;;;;5008651;28;20504;-55
2023/11/19 02:46:06;;;;;;;41.47;3.10;;;;;;;;;;5009227;28;20421;-54
2023/11/19 02:48:31;;;;;;;85.18;5.63;;;;;;;;;;5008731;28;20555;-55
2023/11/19 02:50:58;;;;;;;47.25;3.83;;;;;;;;;;5009558;28;20113;-55
2023/11/19 02:53:24;;;;;;;58.17;4.53;;;;;;;;;;5010235;28;20032;-55
2023/11/19 02:55:50;;;;;;;76.75;5.20;;;;;;;;;;5006334;28;20046;-54
2023/11/19 02:58:23;;;;;;;52.33;4.10;;;;;;;;;;5009027;28;20503;-54
2023/11/19 03:00:54;;;;;;;71.82;5.13;;;;;;;;;;5010461;28;20030;-54
2023/11/19 03:03:25;;;;;;;94.55;6.22;;;;;;;;;;5011015;28;20022;-56
2023/11/19 03:05:51;;;;;;;41.03;3.97;;;;;;;;;;5008321;28;20049;-55
2023/11/19 03:08:17;;;;;;;39.75;3.55;;;;;;;;;;5013480;28;20018;-54
2023/11/19 03:10:42;;;;;;;131.73;8.63;;;;;;;;;;5008926;28;20383;-54
2023/11/19 03:13:11;;;;;;;54.80;4.07;;;;;;;;;;5009815;28;20045;-55
2023/11/19 03:15:37;;;;;;;86.07;6.32;;;;;;;;;;5008461;28;20037;-55
2023/11/19 03:18:02;;;;;;;84.72;5.35;;;;;;;;;;5010413;28;20385;-55
2023/11/19 03:20:30;;;;;;;51.00;4.47;;;;;;;;;;5008763;28;20498;-55
2023/11/19 03:22:55;;;;;;;49.95;4.18;;;;;;;;;;5008641;28;20021;-55
2023/11/19 03:25:20;;;;;;;80.25;5.30;;;;;;;;;;5008696;28;20095;-55
2023/11/19 03:27:45;;;;;;;91.93;6.38;;;;;;;;;;5010064;28;20478;-54
2023/11/19 03:30:11;;;;;;;61.10;4.90;;;;;;;;;;5008678;28;20024;-55
2023/11/19 03:32:38;;;;;;;110.43;7.28;;;;;;;;;;5006398;28;20392;-55
2023/11/19 03:35:07;;;;;;;50.42;4.05;;;;;;;;;;5008759;28;20127;-55
2023/11/19 03:37:32;;;;;;;51.30;4.30;;;;;;;;;;5008688;28;20417;-55
2023/11/19 03:39:59;;;;;;;61.92;5.05;;;;;;;;;;5010174;28;20023;-55
2023/11/19 03:42:25;;;;;;;72.28;5.40;;;;;;;;;;5006605;28;20240;-55
2023/11/19 03:44:51;;;;;;;98.10;7.00;;;;;;;;;;5008434;28;20029;-55
2023/11/19 03:47:16;;;;;;;59.78;5.03;;;;;;;;;;5009583;28;20052;-55
2023/11/19 03:49:42;;;;;;;120.30;8.30;;;;;;;;;;5007559;28;20501;-55
2023/11/19 03:52:09;;;;;;;52.80;4.55;;;;;;;;;;5009401;28;20414;-55
2023/11/19 03:54:35;;;;;;;53.72;4.20;;;;;;;;;;5008367;28;20121;-55
2023/11/19 03:57:03;;;;;;;94.55;5.50;;;;;;;;;;5009329;28;20099;-55
2023/11/19 03:59:28;;;;;;;47.65;2.92;;;;;;;;;;5009967;28;20079;-57
2023/11/19 04:01:54;;;;;;;58.50;3.28;;;;;;;;;;5009333;28;20034;-55
2023/11/19 04:04:19;;;;;;;80.40;4.75;;;;;;;;;;5009138;28;20468;-55
2023/11/19 04:06:44;;;;;;;97.13;6.27;;;;;;;;;;5009878;28;20065;-55
2023/11/19 04:09:10;;;;;;;42.27;2.80;;;;;;;;;;5009036;28;20787;-55
2023/11/19 04:11:35;;;;;;;70.65;4.25;;;;;;;;;;5010161;28;20964;-56
2023/11/19 04:14:00;;;;;;;63.90;3.83;;;;;;;;;;5007915;28;20030;-55
2023/11/19 04:16:29;;;;;;;54.70;3.63;;;;;;;;;;5009229;28;20042;-55
2023/11/19 04:18:54;;;;;;;43.95;3.00;;;;;;;;;;5006343;28;20026;-55
2023/11/19 04:21:19;;;;;;;79.22;4.50;;;;;;;;;;5007257;28;20056;-55
2023/11/19 04:23:44;;;;;;;77.82;5.00;;;;;;;;;;5005634;28;20022;-57
2023/11/19 04:26:10;;;;;;;49.00;3.22;;;;;;;;;;5007590;28;20324;-55
2023/11/19 04:28:35;;;;;;;93.55;5.15;;;;;;;;;;5006348;28;20748;-55
2023/11/19 04:31:00;;;;;;;47.72;3.08;;;;;;;;;;5008751;28;20041;-55
2023/11/19 04:33:26;;;;;;;72.68;4.38;;;;;;;;;;5009107;28;20029;-56
2023/11/19 04:35:51;;;;;;;125.65;7.25;;;;;;;;;;5007704;28;20116;-55
2023/11/19 04:38:16;;;;;;;52.50;3.65;;;;;;;;;;5009465;28;20029;-55
2023/11/19 04:40:41;;;;;;;97.73;6.17;;;;;;;;;;5006893;28;20044;-55
2023/11/19 04:43:07;;;;;;;61.97;3.78;;;;;;;;;;5006041;28;20275;-56
2023/11/19 04:45:32;;;;;;;60.28;3.78;;;;;;;;;;5008012;28;20061;-55
2023/11/19 04:47:57;;;;;;;42.75;2.92;;;;;;;;;;5007705;28;20477;-54
2023/11/19 04:50:22;;;;;;;60.80;3.73;;;;;;;;;;5007872;28;20032;-55
2023/11/19 04:52:48;;;;;;;124.23;7.30;;;;;;;;;;5005983;28;20252;-55
2023/11/19 04:55:14;;;;;;;39.43;2.60;;;;;;;;;;5008813;28;20272;-55
2023/11/19 04:57:39;;;;;;;79.03;4.88;;;;;;;;;;5007605;28;20265;-55
2023/11/19 05:00:05;;;;;;;79.60;6.65;;;;;;;;;;5008206;28;20152;-55
2023/11/19 05:02:30;;;;;;;60.80;6.22;;;;;;;;;;5014263;28;20038;-56
2023/11/19 05:04:55;;;;;;;45.53;5.20;;;;;;;;;;5008474;28;21574;-55
2023/11/19 05:07:20;;;;;;;82.38;6.82;;;;;;;;;;5006342;28;20048;-55
2023/11/19 05:09:46;;;;;;;108.72;8.43;;;;;;;;;;5005573;28;20030;-55
2023/11/19 05:12:12;;;;;;;44.10;5.35;;;;;;;;;;5005626;28;20033;-55
2023/11/19 05:14:37;;;;;;;59.63;5.97;;;;;;;;;;5007056;28;20144;-55
2023/11/19 05:17:03;;;;;;;91.03;7.65;;;;;;;;;;5007042;28;20153;-55
2023/11/19 05:19:28;;;;;;;64.80;6.75;;;;;;;;;;5007486;28;20104;-56
2023/11/19 05:21:53;;;;;;;102.32;8.05;;;;;;;;;;5006714;28;20173;-56
2023/11/19 05:24:19;;;;;;;77.75;7.07;;;;;;;;;;5010056;28;20329;-55
2023/11/19 05:26:44;;;;;;;101.32;9.50;;;;;;;;;;5011022;28;20087;-56
2023/11/19 05:29:09;;;;;;;48.17;6.25;;;;;;;;;;5013760;28;20476;-56
2023/11/19 05:31:34;;;;;;;71.72;7.65;;;;;;;;;;5011880;28;20507;-56
2023/11/19 05:34:00;;;;;;;55.95;6.78;;;;;;;;;;5009419;28;20337;-55
2023/11/19 05:36:25;;;;;;;61.00;6.20;;;;;;;;;;5012936;28;20453;-55
2023/11/19 05:38:50;;;;;;;96.47;7.93;;;;;;;;;;5010924;28;20648;-55
2023/11/19 05:41:15;;;;;;;83.20;8.63;;;;;;;;;;5011154;28;20288;-55
2023/11/19 05:43:41;;;;;;;73.75;7.80;;;;;;;;;;5011655;28;20197;-55
2023/11/19 05:46:06;;;;;;;49.42;5.90;;;;;;;;;;5011888;28;20049;-56
2023/11/19 05:48:32;;;;;;;69.90;6.72;;;;;;;;;;5010426;28;20429;-55
2023/11/19 05:50:57;;;;;;;115.32;9.10;;;;;;;;;;5011591;28;20037;-56
2023/11/19 05:53:22;;;;;;;83.38;7.88;;;;;;;;;;5011247;28;20099;-55
2023/11/19 05:56:09;;;;;;;120.38;9.15;;;;;;;;;;5011337;28;20045;-56
2023/11/19 05:58:35;;;;;;;55.05;6.13;;;;;;;;;;5011592;28;20022;-55
2023/11/19 06:01:01;;;;;;;56.97;5.50;;;;;;;;;;5009301;28;20045;-55
2023/11/19 06:03:26;;;;;;;69.30;6.53;;;;;;;;;;5011810;28;20029;-56
2023/11/19 06:05:51;;;;;;;112.88;10.27;;;;;;;;;;5009430;28;20049;-55
2023/11/19 06:08:17;;;;;;;53.53;6.05;;;;;;;;;;5010948;28;20025;-56
2023/11/19 06:10:42;;;;;;;79.50;6.60;;;;;;;;;;5009282;28;20033;-56
2023/11/19 06:13:10;;;;;;;53.00;6.15;;;;;;;;;;5011711;28;20030;-55
2023/11/19 06:15:36;;;;;;;52.28;6.40;;;;;;;;;;5010842;28;20034;-55
2023/11/19 06:18:03;;;;;;;79.45;6.97;;;;;;;;;;5010458;28;20087;-55
2023/11/19 06:20:29;;;;;;;142.48;11.18;;;;;;;;;;5008704;28;20296;-56
2023/11/19 06:22:54;;;;;;;76.00;7.28;;;;;;;;;;5012222;28;20006;-56
2023/11/19 06:25:19;;;;;;;73.95;5.53;;;;;;;;;;5008359;28;20642;-55
2023/11/19 06:27:44;;;;;;;83.30;8.47;;;;;;;;;;5010760;28;20017;-56
2023/11/19 06:30:10;;;;;;;47.88;4.75;;;;;;;;;;5010075;28;20272;-55
2023/11/19 06:32:35;;;;;;;55.80;6.43;;;;;;;;;;5008580;28;20018;-56
2023/11/19 06:35:00;;;;;;;74.40;7.20;;;;;;;;;;5008937;28;20033;-56
2023/11/19 06:37:27;;;;;;;63.20;6.68;;;;;;;;;;5009410;28;20494;-55
2023/11/19 06:39:52;;;;;;;107.28;9.68;;;;;;;;;;5009064;28;20026;-55
2023/11/19 06:42:17;;;;;;;83.07;7.07;;;;;;;;;;5009013;28;20029;-56
2023/11/19 06:44:42;;;;;;;63.08;6.95;;;;;;;;;;5008614;28;20022;-55
2023/11/19 06:47:08;;;;;;;53.80;5.20;;;;;;;;;;5010416;28;20060;-56
2023/11/19 06:49:33;;;;;;;79.25;7.65;;;;;;;;;;5007368;28;20265;-55
2023/11/19 06:51:58;;;;;;;115.05;9.90;;;;;;;;;;5008877;28;20058;-56
2023/11/19 06:54:24;;;;;;;66.95;6.20;;;;;;;;;;5009949;28;20141;-56
2023/11/19 06:56:49;;;;;;;110.65;9.65;;;;;;;;;;5007556;28;20037;-55
2023/11/19 06:59:14;;;;;;;65.40;6.05;;;;;;;;;;5010283;28;20014;-56
2023/11/19 07:01:42;;;;;;;58.92;5.53;;;;;;;;;;5010284;28;20037;-56
2023/11/19 07:04:09;;;;;;;47.70;4.43;;;;;;;;;;5008075;28;20405;-56
2023/11/19 07:06:35;;;;;;;75.15;6.53;;;;;;;;;;5009686;28;20341;-56
2023/11/19 07:09:09;;;;;;;103.80;8.60;;;;;;;;;;5008474;28;20513;-56
2023/11/19 07:11:35;;;;;;;74.50;6.05;;;;;;;;;;5009984;28;20057;-56
2023/11/19 07:14:00;;;;;;;83.65;7.28;;;;;;;;;;5007120;28;20092;-56
2023/11/19 07:16:25;;;;;;;62.15;5.63;;;;;;;;;;5009062;28;20033;-56
2023/11/19 07:18:51;;;;;;;95.93;8.17;;;;;;;;;;5008708;28;20049;-55
2023/11/19 07:21:16;;;;;;;53.77;5.47;;;;;;;;;;5010941;28;20353;-56
2023/11/19 07:23:41;;;;;;;46.50;4.80;;;;;;;;;;5009622;28;20261;-55
2023/11/19 07:26:09;;;;;;;52.33;5.38;;;;;;;;;;5006093;28;20069;-55
2023/11/19 07:28:35;;;;;;;61.75;5.45;;;;;;;;;;5007431;28;20029;-55
2023/11/19 07:31:00;;;;;;;95.90;8.07;;;;;;;;;;5008531;28;20504;-56
2023/11/19 07:33:25;;;;;;;75.63;6.13;;;;;;;;;;5009325;28;20284;-55
2023/11/19 07:35:51;;;;;;;130.40;10.35;;;;;;;;;;5006820;28;20283;-56
2023/11/19 07:38:17;;;;;;;42.08;4.85;;;;;;;;;;5009405;28;20087;-56
2023/11/19 07:40:42;;;;;;;37.30;4.47;;;;;;;;;;5007856;28;20481;-56
2023/11/19 07:43:07;;;;;;;39.42;4.15;;;;;;;;;;5006880;28;20072;-55
2023/11/19 07:45:32;;;;;;;68.07;5.57;;;;;;;;;;5008693;28;20480;-55
2023/11/19 07:47:58;;;;;;;101.55;8.25;;;;;;;;;;5008222;28;20104;-55
2023/11/19 07:50:24;;;;;;;60.92;5.75;;;;;;;;;;5007186;28;20477;-55
2023/11/19 07:52:49;;;;;;;95.68;7.28;;;;;;;;;;5006178;28;20616;-55
2023/11/19 07:55:15;;;;;;;54.40;5.03;;;;;;;;;;5009805;28;20052;-56
2023/11/19 07:57:40;;;;;;;41.67;4.68;;;;;;;;;;5011805;28;20445;-55
2023/11/19 08:00:06;;;;;;;68.20;6.40;;;;;;;;;;5007324;28;20133;-55
2023/11/19 08:02:31;;;;;;;51.20;4.97;;;;;;;;;;5009576;28;20376;-54
2023/11/19 08:04:57;;;;;;;105.97;8.30;;;;;;;;;;5007402;28;20124;-56
2023/11/19 08:07:22;;;;;;;67.67;6.20;;;;;;;;;;5007956;28;20383;-56
2023/11/19 08:09:47;;;;;;;66.13;5.88;;;;;;;;;;5008427;28;20344;-56
2023/11/19 08:12:14;;;;;;;61.90;5.50;;;;;;;;;;5008595;28;20042;-55
2023/11/19 08:14:39;;;;;;;47.70;5.05;;;;;;;;;;5010919;28;20041;-56
2023/11/19 08:17:05;;;;;;;133.15;9.77;;;;;;;;;;5006712;28;20045;-55
2023/11/19 08:19:30;;;;;;;38.00;4.70;;;;;;;;;;5010101;28;20729;-55
2023/11/19 08:21:55;;;;;;;96.32;7.43;;;;;;;;;;5006498;28;20405;-55
2023/11/19 08:24:20;;;;;;;71.88;6.32;;;;;;;;;;5008165;28;20108;-55
2023/11/19 08:26:46;;;;;;;65.53;5.78;;;;;;;;;;5009391;28;20093;-55
2023/11/19 08:29:11;;;;;;;31.73;4.68;;;;;;;;;;5006368;28;20495;-56
2023/11/19 08:31:36;;;;;;;92.22;7.28;;;;;;;;;;5004795;28;20136;-55
2023/11/19 08:34:01;;;;;;;115.47;9.30;;;;;;;;;;5005105;28;20022;-55
2023/11/19 08:36:28;;;;;;;68.50;6.57;;;;;;;;;;5007022;28;20320;-56
2023/11/19 08:38:53;;;;;;;99.25;8.27;;;;;;;;;;5005941;28;20287;-57
2023/11/19 08:41:19;;;;;;;86.63;7.10;;;;;;;;;;5006928;28;20057;-56
2023/11/19 08:43:44;;;;;;;46.67;5.13;;;;;;;;;;5010207;28;20051;-56
2023/11/19 08:46:10;;;;;;;52.97;5.50;;;;;;;;;;5006838;28;20496;-55
2023/11/19 08:48:36;;;;;;;51.30;4.75;;;;;;;;;;5007175;28;20033;-55
2023/11/19 08:51:01;;;;;;;74.63;6.10;;;;;;;;;;5007118;28;20030;-55
2023/11/19 08:53:26;;;;;;;80.93;6.43;;;;;;;;;;5004692;28;20033;-56
2023/11/19 08:55:52;;;;;;;74.67;7.00;;;;;;;;;;5005912;28;20264;-55
2023/11/19 08:58:18;;;;;;;59.70;6.30;;;;;;;;;;5006767;28;20275;-56
2023/11/19 09:00:43;;;;;;;47.63;5.53;;;;;;;;;;5005755;28;20026;-56
2023/11/19 09:03:09;;;;;;;42.17;4.80;;;;;;;;;;5005778;28;20034;-56
2023/11/19 09:05:34;;;;;;;78.97;6.25;;;;;;;;;;5006021;28;20496;-56
2023/11/19 09:07:59;;;;;;;105.88;7.35;;;;;;;;;;5005269;28;20022;-56
2023/11/19 09:10:25;;;;;;;58.07;4.67;;;;;;;;;;5006353;28;20036;-55
2023/11/19 09:12:50;;;;;;;86.03;6.75;;;;;;;;;;5004796;28;20269;-55
2023/11/19 09:15:15;;;;;;;34.30;3.10;;;;;;;;;;5004933;28;20018;-55
2023/11/19 09:17:40;;;;;;;48.90;4.22;;;;;;;;;;5007901;28;20104;-55
2023/11/19 09:20:06;;;;;;;112.03;7.90;;;;;;;;;;5005560;28;20080;-56
2023/11/19 09:22:31;;;;;;;69.65;5.68;;;;;;;;;;4985239;28;20129;-54
2023/11/19 09:24:59;;;;;;;123.65;9.55;;;;;;;;;;4984911;28;20109;-54
2023/11/19 09:27:25;;;;;;;80.45;7.43;;;;;;;;;;4983572;28;20549;-54
2023/11/19 09:29:56;;;;;;;51.85;5.10;;;;;;;;;;4986175;28;20061;-54
2023/11/19 09:32:22;;;;;;;60.65;5.30;;;;;;;;;;4984988;28;20042;-54
2023/11/19 09:34:47;;;;;;;59.90;5.43;;;;;;;;;;4987689;28;20022;-54
2023/11/19 09:37:12;;;;;;;65.60;5.38;;;;;;;;;;4985256;28;20435;-53
2023/11/19 09:39:37;;;;;;;47.72;4.30;;;;;;;;;;4985532;28;20060;-53
2023/11/19 09:42:03;;;;;;;108.35;8.68;;;;;;;;;;4985600;28;20030;-53
2023/11/19 09:44:29;;;;;;;88.07;6.40;;;;;;;;;;4988734;28;20026;-53
2023/11/19 09:46:55;;;;;;;46.38;4.25;;;;;;;;;;4989453;28;20045;-53
2023/11/19 09:49:22;;;;;;;44.53;4.35;;;;;;;;;;4989303;28;20152;-53
2023/11/19 09:51:47;;;;;;;66.72;5.47;;;;;;;;;;4988639;28;20026;-53
2023/11/19 09:54:12;;;;;;;46.35;3.97;;;;;;;;;;4986056;28;20037;-54
2023/11/19 09:56:38;;;;;;;48.58;4.28;;;;;;;;;;4991161;28;20038;-53
2023/11/19 09:59:04;;;;;;;95.13;7.07;;;;;;;;;;4990482;28;20433;-53
2023/11/19 10:01:31;;;;;;;58.40;4.47;;;;;;;;;;4988464;28;20560;-53
2023/11/19 10:03:57;;;;;;;69.75;5.45;;;;;;;;;;4985896;28;20018;-53
2023/11/19 10:06:22;;;;;;;68.40;5.47;;;;;;;;;;4987329;28;20045;-54
2023/11/19 10:08:48;;;;;;;36.53;3.45;;;;;;;;;;4988594;28;20022;-53
2023/11/19 10:11:15;;;;;;;36.97;3.78;;;;;;;;;;4991792;28;20097;-53
2023/11/19 10:13:42;;;;;;;62.58;5.38;;;;;;;;;;4989456;28;20018;-53
2023/11/19 10:16:17;;;;;;;102.07;8.30;;;;;;;;;;4988050;28;20073;-54
2023/11/19 10:18:45;;;;;;;45.70;4.50;;;;;;;;;;4991036;28;20449;-53
2023/11/19 10:21:16;;;;;;;97.30;7.82;;;;;;;;;;4988492;28;20026;-54
2023/11/19 10:24:01;;;;;;;40.22;4.43;;;;;;;;;;4991104;28;20034;-54
2023/11/19 10:26:27;;;;;;;81.28;6.88;;;;;;;;;;4989063;28;20347;-54
2023/11/19 10:28:52;;;;;;;32.35;4.65;;;;;;;;;;4992670;28;20574;-54
2023/11/19 10:31:18;;;;;;;56.58;7.10;;;;;;;;;;4989300;28;20323;-54
2023/11/19 10:33:44;;;;;;;70.07;9.95;;;;;;;;;;4990745;28;20030;-54
2023/11/19 10:36:11;;;;;;;82.00;8.45;;;;;;;;;;4989661;28;20064;-54
2023/11/19 10:38:37;;;;;;;48.28;6.55;;;;;;;;;;4989131;28;20022;-54
2023/11/19 10:41:02;;;;;;;185.40;26.20;;;;;;;;;;4988279;28;20034;-54
2023/11/19 10:43:27;;;;;;;76.53;6.65;;;;;;;;;;4989991;28;20022;-55
2023/11/19 10:45:53;;;;;;;91.25;14.52;;;;;;;;;;4992444;28;20084;-54
2023/11/19 10:48:18;;;;;;;70.72;8.73;;;;;;;;;;4995251;28;20026;-54
2023/11/19 10:50:45;;;;;;;54.80;6.33;;;;;;;;;;4990222;28;20738;-54
2023/11/19 10:53:15;;;;;;;80.90;6.93;;;;;;;;;;4990850;28;20633;-54
2023/11/19 10:55:41;;;;;;;52.53;4.47;;;;;;;;;;4990054;28;20043;-55
2023/11/19 10:58:09;;;;;;;125.30;9.60;;;;;;;;;;4988276;28;20566;-55
2023/11/19 11:00:53;;;;;;;40.13;4.03;;;;;;;;;;4988478;28;20503;-54
2023/11/19 11:03:20;;;;;;;85.03;6.15;;;;;;;;;;4989254;28;20238;-54
2023/11/19 11:05:49;;;;;;;41.67;4.70;;;;;;;;;;4990549;28;20507;-55
2023/11/19 11:08:14;;;;;;;123.15;10.07;;;;;;;;;;4988652;28;20449;-53
2023/11/19 11:10:43;;;;;;;79.82;5.53;;;;;;;;;;4989173;28;20549;-53
2023/11/19 11:13:08;;;;;;;85.10;6.32;;;;;;;;;;4988471;28;20097;-52
2023/11/19 11:15:34;;;;;;;58.75;4.38;;;;;;;;;;4988946;28;20477;-53
2023/11/19 11:18:01;;;;;;;84.75;6.18;;;;;;;;;;4986786;28;20019;-52
2023/11/19 11:20:28;;;;;;;56.40;4.55;;;;;;;;;;4990062;28;20049;-53
2023/11/19 11:23:13;;;;;;;34.88;3.40;;;;;;;;;;4988290;28;20050;-53
2023/11/19 11:25:38;;;;;;;43.08;3.65;;;;;;;;;;4967619;28;20121;-52
2023/11/19 11:28:18;;;;;;;77.23;5.63;;;;;;;;;;4989321;28;20560;-53
2023/11/19 11:30:55;;;;;;;57.95;6.10;;;;;;;;;;4989666;28;20359;-53
2023/11/19 11:33:27;;;;;;;50.00;4.30;;;;;;;;;;4990493;28;20556;-55
2023/11/19 11:35:52;;;;;;;81.80;5.47;;;;;;;;;;4988933;28;20068;-52
2023/11/19 11:38:21;;;;;;;50.03;4.20;;;;;;;;;;4987619;28;21737;-53
2023/11/19 11:41:06;;;;;;;43.92;4.28;;;;;;;;;;4990747;28;20042;-53
2023/11/19 11:43:45;;;;;;;59.97;4.88;;;;;;;;;;4988939;28;20113;-53
2023/11/19 11:46:29;;;;;;;120.47;8.65;;;;;;;;;;4987631;28;20117;-52
2023/11/19 11:48:54;;;;;;;52.58;4.85;;;;;;;;;;4990511;28;20022;-53
2023/11/19 11:51:40;;;;;;;65.88;5.53;;;;;;;;;;4985672;28;20038;-53
2023/11/19 11:54:05;;;;;;;152.68;51.70;;;;;;;;;;4989979;28;20037;-53
2023/11/19 11:56:36;;;;;;;53.67;3.90;;;;;;;;;;4988958;28;20030;-53
2023/11/19 11:59:02;;;;;;;57.47;4.00;;;;;;;;;;4988806;28;20266;-53
2023/11/19 12:01:29;;;;;;;55.25;4.18;;;;;;;;;;4988453;28;20025;-52
2023/11/19 12:03:58;;;;;;;56.28;6.38;;;;;;;;;;4989404;28;20034;-53
2023/11/19 12:06:24;;;;;;;59.47;5.15;;;;;;;;;;4988451;28;20040;-53
2023/11/19 12:08:49;;;;;;;40.72;3.63;;;;;;;;;;4991479;28;20025;-53
2023/11/19 12:11:16;;;;;;;127.45;17.45;;;;;;;;;;4990147;28;20069;-53
2023/11/19 12:13:54;;;;;;;73.70;5.10;;;;;;;;;;4989161;28;20034;-52
2023/11/19 12:16:19;;;;;;;89.43;6.40;;;;;;;;;;4998336;28;20034;-53
2023/11/19 12:18:44;;;;;;;68.45;5.65;;;;;;;;;;5006874;28;20030;-53
2023/11/19 12:21:10;;;;;;;101.82;7.50;;;;;;;;;;5007847;28;20037;-54
2023/11/19 12:23:43;;;;;;;51.28;4.13;;;;;;;;;;5008073;28;20033;-54
2023/11/19 12:26:20;;;;;;;126.07;8.05;;;;;;;;;;5005099;28;20045;-55
2023/11/19 12:28:56;;;;;;;80.25;8.15;;;;;;;;;;5009873;28;20029;-54
2023/11/19 12:31:22;;;;;;;79.05;5.15;;;;;;;;;;5003409;28;20540;-55
2023/11/19 12:33:48;;;;;;;48.22;4.40;;;;;;;;;;5008201;28;20072;-55
2023/11/19 12:36:13;;;;;;;96.18;6.68;;;;;;;;;;5006591;28;20356;-53
2023/11/19 12:38:38;;;;;;;87.05;6.18;;;;;;;;;;5007288;28;20041;-54
2023/11/19 12:41:04;;;;;;;58.65;4.95;;;;;;;;;;5006015;28;20030;-53
2023/11/19 12:43:30;;;;;;;73.47;5.38;;;;;;;;;;5008757;28;20029;-54
2023/11/19 12:45:55;;;;;;;109.45;16.23;;;;;;;;;;5008511;28;20127;-54
2023/11/19 12:48:21;;;;;;;119.10;7.82;;;;;;;;;;5009252;28;20030;-54
2023/11/19 12:50:57;;;;;;;41.75;5.25;;;;;;;;;;5008582;28;20046;-55
2023/11/19 12:53:23;;;;;;;114.43;11.98;;;;;;;;;;5006433;28;20179;-54
2023/11/19 12:55:48;;;;;;;49.40;4.28;;;;;;;;;;5006228;28;20045;-54
2023/11/19 12:58:33;;;;;;;118.90;14.40;;;;;;;;;;5009152;28;20520;-55
2023/11/19 13:00:59;;;;;;;57.10;4.50;;;;;;;;;;5008458;28;20033;-53
2023/11/19 13:03:31;;;;;;;69.47;5.72;;;;;;;;;;5006074;28;20467;-54
2023/11/19 13:06:03;;;;;;;89.40;5.57;;;;;;;;;;5008631;28;20394;-54
2023/11/19 13:08:35;;;;;;;58.38;6.65;;;;;;;;;;5006468;28;20486;-54
2023/11/19 13:11:01;;;;;;;69.53;4.97;;;;;;;;;;5007255;28;20045;-54
2023/11/19 13:13:26;;;;;;;104.03;11.02;;;;;;;;;;5006066;28;20033;-54
2023/11/19 13:15:51;;;;;;;55.75;4.65;;;;;;;;;;5008150;28;20636;-54
2023/11/19 13:18:17;;;;;;;103.78;7.45;;;;;;;;;;5004840;28;20026;-54
2023/11/19 13:20:43;;;;;;;91.18;6.00;;;;;;;;;;5006913;28;20038;-54
2023/11/19 13:23:09;;;;;;;55.95;4.43;;;;;;;;;;5006240;28;20017;-54
2023/11/19 13:25:35;;;;;;;46.22;3.80;;;;;;;;;;5006334;28;20052;-54
2023/11/19 13:28:00;;;;;;;70.80;4.97;;;;;;;;;;5008061;28;20364;-54
2023/11/19 13:30:26;;;;;;;53.03;4.30;;;;;;;;;;5004794;28;20096;-54
2023/11/19 13:32:52;;;;;;;43.03;3.53;;;;;;;;;;5006543;28;20501;-54
2023/11/19 13:35:18;;;;;;;129.77;8.70;;;;;;;;;;5005075;28;20026;-54
2023/11/19 13:37:43;;;;;;;52.08;4.03;;;;;;;;;;5007517;28;20033;-54
2023/11/19 13:40:09;;;;;;;70.25;6.85;;;;;;;;;;5003691;28;20108;-54
2023/11/19 13:42:40;;;;;;;64.43;4.50;;;;;;;;;;5007046;28;20120;-54
2023/11/19 13:45:10;;;;;;;48.75;3.75;;;;;;;;;;5012965;28;20041;-54
2023/11/19 13:47:35;;;;;;;54.40;4.10;;;;;;;;;;4992659;28;20589;-54
2023/11/19 13:50:01;;;;;;;76.10;5.00;;;;;;;;;;4993166;28;20161;-54
2023/11/19 13:52:26;;;;;;;54.38;4.00;;;;;;;;;;4989517;28;20041;-54
2023/11/19 13:54:51;;;;;;;36.97;3.03;;;;;;;;;;4992139;28;20022;-55
2023/11/19 13:57:17;;;;;;;101.65;6.53;;;;;;;;;;4989762;28;20319;-55
2023/11/19 13:59:42;;;;;;;71.05;4.75;;;;;;;;;;4991041;28;20275;-54
2023/11/19 14:02:07;;;;;;;49.00;3.75;;;;;;;;;;4990314;28;20074;-55
2023/11/19 14:04:33;;;;;;;64.65;4.35;;;;;;;;;;4990742;28;20037;-54
2023/11/19 14:06:58;;;;;;;62.83;4.50;;;;;;;;;;4992307;28;20047;-55
2023/11/19 14:09:23;;;;;;;94.57;5.97;;;;;;;;;;4991203;28;20030;-54
2023/11/19 14:11:51;;;;;;;63.70;4.53;;;;;;;;;;4991242;28;20307;-55
2023/11/19 14:14:16;;;;;;;107.22;8.23;;;;;;;;;;4991912;28;20285;-55
2023/11/19 14:16:41;;;;;;;42.55;3.35;;;;;;;;;;4990979;28;20033;-54
2023/11/19 14:19:06;;;;;;;47.42;3.70;;;;;;;;;;4991137;28;20294;-55
2023/11/19 14:21:32;;;;;;;80.93;5.33;;;;;;;;;;4987961;28;20406;-55
2023/11/19 14:23:57;;;;;;;45.33;3.87;;;;;;;;;;4989864;28;20364;-55